createdAt,value
2022-09-13T00:02:09.462Z,11.23
2022-09-13T00:04:42.695Z,11.67
2022-09-13T00:07:21.850Z,11.43
2022-09-13T00:09:48.851Z,10.33
2022-09-13T00:12:15.889Z,11.13
2022-09-13T00:14:42.900Z,10.53
2022-09-13T00:17:12.819Z,11.07
2022-09-13T00:19:39.832Z,10.70
2022-09-13T00:22:06.876Z,10.80
2022-09-13T00:24:43.133Z,10.37
2022-09-13T00:27:16.459Z,11.13
2022-09-13T00:29:49.656Z,10.20
2022-09-13T00:32:17.036Z,10.40
2022-09-13T00:34:44.007Z,10.60
2022-09-13T00:37:11.039Z,10.50
2022-09-13T00:39:37.910Z,10.53
2022-09-13T00:42:04.970Z,11.03
2022-09-13T00:44:53.703Z,11.27
2022-09-13T00:47:24.145Z,12.30
2022-09-13T00:50:03.134Z,12.60
2022-09-13T00:52:32.658Z,11.90
2022-09-13T00:55:06.576Z,12.27
2022-09-13T00:57:35.419Z,12.77
2022-09-13T01:00:12.483Z,12.23
2022-09-13T01:02:51.762Z,12.17
2022-09-13T01:05:22.553Z,12.70
2022-09-13T01:07:50.473Z,13.00
2022-09-13T01:10:42.407Z,12.43
2022-09-13T01:13:59.718Z,11.97
2022-09-13T01:16:45.907Z,12.67
2022-09-13T01:19:14.903Z,13.30
2022-09-13T01:22:28.755Z,13.53
2022-09-13T01:25:17.504Z,13.63
2022-09-13T01:28:09.086Z,13.03
2022-09-13T01:30:49.229Z,13.50
2022-09-13T01:34:06.957Z,13.47
2022-09-13T01:37:04.987Z,13.03
2022-09-13T01:40:06.737Z,13.13
2022-09-13T01:42:52.980Z,13.17
2022-09-13T01:45:40.357Z,13.33
2022-09-13T01:48:41.553Z,13.07
2022-09-13T01:51:31.334Z,13.20
2022-09-13T01:54:33.881Z,13.60
2022-09-13T01:57:35.643Z,12.77
2022-09-13T02:00:10.266Z,12.23
2022-09-13T02:03:19.116Z,13.67
2022-09-13T02:06:09.692Z,13.30
2022-09-13T02:09:09.509Z,14.43
2022-09-13T02:12:20.387Z,13.73
2022-09-13T02:15:19.350Z,13.97
2022-09-13T02:24:28.185Z,14.37
2022-09-13T02:27:50.266Z,14.17
2022-09-13T02:30:34.830Z,14.80
2022-09-13T02:36:13.167Z,14.30
2022-09-13T02:39:02.901Z,14.07
2022-09-13T02:42:01.647Z,14.07
2022-09-13T02:44:43.246Z,13.93
2022-09-13T02:47:35.619Z,13.87
2022-09-13T02:50:47.961Z,13.67
2022-09-13T02:53:56.102Z,14.43
2022-09-13T02:56:45.008Z,13.37
2022-09-13T02:59:16.703Z,13.73
2022-09-13T03:02:01.100Z,13.50
2022-09-13T03:04:30.717Z,13.00
2022-09-13T03:07:25.534Z,13.27
2022-09-13T03:10:01.212Z,12.80
2022-09-13T03:13:15.944Z,13.03
2022-09-13T03:15:58.239Z,12.50
2022-09-13T03:18:41.055Z,12.33
2022-09-13T03:21:49.722Z,11.00
2022-09-13T03:24:55.409Z,12.20
2022-09-13T03:28:06.154Z,12.27
2022-09-13T03:30:38.536Z,11.90
2022-09-13T03:33:20.551Z,11.87
2022-09-13T03:35:57.436Z,11.20
2022-09-13T03:38:51.853Z,11.80
2022-09-13T03:42:01.465Z,11.50
2022-09-13T03:44:31.460Z,11.17
2022-09-13T03:47:06.556Z,10.47
2022-09-13T03:49:39.220Z,10.63
2022-09-13T03:52:10.416Z,10.37
2022-09-13T03:54:38.761Z,10.17
2022-09-13T03:57:10.922Z,10.63
2022-09-13T03:59:45.035Z,10.40
2022-09-13T04:02:12.654Z,10.60
2022-09-13T04:04:40.694Z,10.33
2022-09-13T04:07:09.052Z,11.00
2022-09-13T04:09:36.212Z,10.13
2022-09-13T04:12:16.423Z,9.80
2022-09-13T04:14:45.300Z,9.93
2022-09-13T04:17:20.351Z,10.30
2022-09-13T04:19:51.165Z,10.17
2022-09-13T04:22:21.724Z,10.53
2022-09-13T04:24:49.071Z,10.10
2022-09-13T04:27:16.056Z,10.83
2022-09-13T04:29:43.026Z,10.90
2022-09-13T04:32:11.186Z,10.10
2022-09-13T04:34:38.299Z,10.90
2022-09-13T04:37:05.337Z,10.40
2022-09-13T04:39:38.593Z,10.37
2022-09-13T04:42:07.390Z,10.37
2022-09-13T04:44:36.836Z,10.60
2022-09-13T04:47:30.913Z,10.00
2022-09-13T04:50:04.406Z,10.47
2022-09-13T04:52:31.422Z,10.40
2022-09-13T04:55:01.793Z,10.60
2022-09-13T04:57:32.167Z,10.37
2022-09-13T04:59:59.248Z,10.10
2022-09-13T05:02:37.058Z,10.37
2022-09-13T05:05:05.325Z,10.50
2022-09-13T05:07:35.294Z,10.10
2022-09-13T05:10:02.236Z,10.20
2022-09-13T05:12:29.113Z,9.67
2022-09-13T05:14:56.122Z,10.50
2022-09-13T05:17:23.489Z,10.53
2022-09-13T05:19:53.496Z,11.57
2022-09-13T05:22:20.859Z,10.10
2022-09-13T05:24:50.463Z,11.20
2022-09-13T05:27:17.485Z,11.17
2022-09-13T05:29:44.383Z,11.20
2022-09-13T05:32:11.331Z,10.53
2022-09-13T05:34:38.305Z,10.50
2022-09-13T05:37:16.050Z,11.60
2022-09-13T05:40:09.678Z,11.03
2022-09-13T05:42:33.420Z,10.70
2022-09-13T05:45:00.405Z,10.97
2022-09-13T05:47:27.420Z,10.13
2022-09-13T05:50:11.092Z,9.27
2022-09-13T05:52:41.343Z,9.40
2022-09-13T05:55:08.779Z,9.60
2022-09-13T05:57:37.768Z,9.30
2022-09-13T06:00:05.729Z,9.33
2022-09-13T06:02:32.769Z,9.37
2022-09-13T06:04:59.940Z,8.77
2022-09-13T06:07:30.228Z,9.27
2022-09-13T06:09:58.519Z,9.00
2022-09-13T06:12:25.437Z,8.87
2022-09-13T06:14:52.296Z,9.40
2022-09-13T06:17:28.705Z,8.33
2022-09-13T06:19:57.134Z,8.53
2022-09-13T06:22:33.224Z,8.30
2022-09-13T06:25:00.499Z,8.47
2022-09-13T06:27:31.402Z,8.40
2022-09-13T06:29:58.424Z,9.00
2022-09-13T06:32:25.618Z,8.90
2022-09-13T06:35:03.308Z,8.93
2022-09-13T06:37:30.229Z,9.03
2022-09-13T06:39:57.782Z,9.40
2022-09-13T06:42:24.656Z,9.60
2022-09-13T06:44:51.574Z,8.87
2022-09-13T06:47:18.486Z,9.03
2022-09-13T06:49:48.386Z,9.00
2022-09-13T06:52:19.242Z,9.27
2022-09-13T06:54:46.185Z,8.90
2022-09-13T06:57:13.056Z,9.20
2022-09-13T06:59:39.900Z,8.83
2022-09-13T07:02:14.554Z,8.47
2022-09-13T07:04:41.565Z,8.43
2022-09-13T07:07:08.651Z,8.73
2022-09-13T07:09:35.509Z,8.70
2022-09-13T07:12:02.604Z,8.90
2022-09-13T07:14:29.948Z,8.80
2022-09-13T07:17:00.503Z,9.27
2022-09-13T07:19:29.652Z,9.20
2022-09-13T07:21:57.363Z,8.80
2022-09-13T07:24:25.250Z,9.30
2022-09-13T07:26:52.232Z,9.43
2022-09-13T07:29:23.775Z,9.30
2022-09-13T07:31:53.010Z,9.40
2022-09-13T07:34:22.069Z,9.87
2022-09-13T07:36:49.345Z,10.03
2022-09-13T07:39:22.093Z,10.47
2022-09-13T07:41:50.331Z,10.33
2022-09-13T07:44:17.280Z,10.50
2022-09-13T07:46:44.319Z,10.43
2022-09-13T07:49:13.134Z,10.37
2022-09-13T07:51:42.324Z,11.00
2022-09-13T07:54:14.737Z,10.37
2022-09-13T07:56:42.458Z,11.43
2022-09-13T07:59:14.591Z,10.67
2022-09-13T08:01:44.196Z,9.90
2022-09-13T08:04:13.677Z,10.70
2022-09-13T08:06:41.707Z,11.43
2022-09-13T08:09:09.743Z,10.73
2022-09-13T08:11:42.967Z,10.43
2022-09-13T08:14:12.736Z,7.63
2022-09-13T08:16:40.162Z,7.63
2022-09-13T08:19:08.572Z,8.30
2022-09-13T08:21:42.493Z,9.60
2022-09-13T08:24:15.020Z,9.20
2022-09-13T08:26:41.958Z,8.90
2022-09-13T08:29:09.104Z,9.27
2022-09-13T08:31:36.633Z,9.37
2022-09-13T08:34:03.677Z,9.67
2022-09-13T08:36:30.808Z,8.90
2022-09-13T08:39:00.676Z,8.73
2022-09-13T08:41:52.743Z,8.60
2022-09-13T08:44:47.781Z,8.37
2022-09-13T08:47:21.944Z,8.93
2022-09-13T08:49:54.610Z,8.00
2022-09-13T08:52:47.455Z,8.20
2022-09-13T08:55:34.327Z,8.67
2022-09-13T08:58:17.317Z,8.13
2022-09-13T09:00:59.112Z,7.03
2022-09-13T09:03:46.866Z,7.50
2022-09-13T09:06:16.517Z,7.70
2022-09-13T09:08:48.034Z,5.67
2022-09-13T09:11:44.024Z,4.10
2022-09-13T09:14:32.442Z,3.10
2022-09-13T09:17:04.424Z,3.13
2022-09-13T09:19:45.053Z,3.13
2022-09-13T09:22:18.268Z,3.00
2022-09-13T09:24:57.094Z,3.20
2022-09-13T09:27:24.152Z,2.97
2022-09-13T09:29:54.852Z,3.33
2022-09-13T09:32:34.012Z,3.27
2022-09-13T09:35:15.786Z,3.30
2022-09-13T09:37:45.410Z,3.30
2022-09-13T09:40:14.628Z,3.40
2022-09-13T09:42:47.796Z,3.43
2022-09-13T09:45:33.750Z,3.40
2022-09-13T09:48:07.228Z,3.10
2022-09-13T09:50:39.343Z,3.27
2022-09-13T09:53:17.145Z,3.47
2022-09-13T09:56:01.172Z,3.20
2022-09-13T09:58:39.747Z,3.30
2022-09-13T10:01:17.095Z,3.30
2022-09-13T10:04:03.597Z,3.20
2022-09-13T10:06:32.019Z,2.27
2022-09-13T10:09:03.790Z,2.30
2022-09-13T10:11:53.249Z,2.20
2022-09-13T10:14:29.312Z,2.77
2022-09-13T10:17:22.589Z,2.93
2022-09-13T10:20:21.519Z,2.50
2022-09-13T10:23:17.140Z,2.50
2022-09-13T10:25:58.636Z,2.60
2022-09-13T10:28:26.757Z,2.50
2022-09-13T10:31:05.062Z,2.20
2022-09-13T10:33:40.061Z,1.80
2022-09-13T10:36:29.549Z,2.00
2022-09-13T10:39:08.321Z,1.70
2022-09-13T10:41:39.271Z,1.80
2022-09-13T10:44:22.750Z,1.80
2022-09-13T10:46:50.501Z,1.83
2022-09-13T10:49:46.013Z,1.80
2022-09-13T10:52:36.188Z,1.80
2022-09-13T10:55:24.010Z,2.30
2022-09-13T10:58:14.714Z,1.90
2022-09-13T11:01:02.856Z,1.50
2022-09-13T11:04:11.268Z,1.60
2022-09-13T11:06:46.139Z,1.50
2022-09-13T11:09:18.371Z,1.60
2022-09-13T11:12:06.671Z,1.50
2022-09-13T11:14:54.779Z,1.70
2022-09-13T11:17:39.672Z,1.70
2022-09-13T11:20:33.438Z,1.70
2022-09-13T11:23:06.496Z,1.80
2022-09-13T11:25:48.096Z,1.70
2022-09-13T11:29:02.427Z,2.10
2022-09-13T11:31:35.663Z,2.00
2022-09-13T11:34:20.563Z,1.67
2022-09-13T11:36:59.255Z,1.90
2022-09-13T11:39:43.556Z,2.00
2022-09-13T11:42:32.242Z,2.10
2022-09-13T11:45:21.255Z,1.90
2022-09-13T11:48:11.930Z,1.87
2022-09-13T11:50:57.612Z,2.00
2022-09-13T11:53:50.281Z,2.10
2022-09-13T11:56:28.066Z,1.80
2022-09-13T11:59:19.035Z,1.80
2022-09-13T12:01:52.156Z,2.03
2022-09-13T12:04:25.917Z,2.00
2022-09-13T12:07:12.744Z,2.10
2022-09-13T12:09:51.686Z,2.20
2022-09-13T12:12:26.266Z,2.10
2022-09-13T12:15:02.381Z,2.40
2022-09-13T12:17:39.585Z,2.37
2022-09-13T12:20:39.209Z,2.40
2022-09-13T12:23:15.821Z,2.43
2022-09-13T12:25:59.029Z,2.17
2022-09-13T12:28:42.319Z,2.03
2022-09-13T12:31:19.543Z,2.20
2022-09-13T12:33:47.866Z,2.77
2022-09-13T12:36:29.624Z,2.40
2022-09-13T12:39:34.809Z,2.50
2022-09-13T12:42:31.034Z,2.87
2022-09-13T12:45:26.321Z,2.70
2022-09-13T12:48:21.168Z,2.70
2022-09-13T12:51:18.951Z,2.90
2022-09-13T12:54:32.527Z,2.73
2022-09-13T12:57:20.648Z,2.97
2022-09-13T13:00:02.756Z,2.97
2022-09-13T13:02:40.531Z,3.20
2022-09-13T13:05:26.295Z,3.37
2022-09-13T13:07:56.907Z,3.30
2022-09-13T13:10:38.655Z,3.27
2022-09-13T13:13:14.423Z,2.93
2022-09-13T13:15:47.900Z,3.20
2022-09-13T13:18:49.146Z,3.40
2022-09-13T13:21:31.310Z,3.40
2022-09-13T13:24:33.552Z,3.40
2022-09-13T13:27:00.395Z,3.20
2022-09-13T13:29:31.334Z,3.40
2022-09-13T13:31:58.263Z,4.23
2022-09-13T13:35:17.478Z,3.10
2022-09-13T13:37:44.692Z,3.60
2022-09-13T13:40:23.520Z,3.53
2022-09-13T13:42:51.046Z,3.60
2022-09-13T13:45:25.066Z,3.60
2022-09-13T13:48:17.358Z,4.00
2022-09-13T13:51:19.366Z,3.63
2022-09-13T13:53:52.205Z,3.63
2022-09-13T13:56:26.963Z,3.53
2022-09-13T13:59:06.551Z,3.53
2022-09-13T14:01:39.391Z,3.60
2022-09-13T14:04:27.835Z,3.57
2022-09-13T14:07:22.659Z,3.77
2022-09-13T14:10:01.624Z,4.33
2022-09-13T14:12:34.359Z,3.67
2022-09-13T14:15:43.987Z,3.60
2022-09-13T14:18:24.519Z,3.70
2022-09-13T14:21:00.845Z,3.73
2022-09-13T14:23:27.855Z,3.93
2022-09-13T14:25:57.976Z,4.10
2022-09-13T14:28:45.440Z,3.83
2022-09-13T14:31:19.942Z,3.63
2022-09-13T14:33:47.476Z,3.90
2022-09-13T14:36:20.731Z,4.17
2022-09-13T14:39:14.952Z,3.90
2022-09-13T14:41:42.079Z,3.87
2022-09-13T14:44:27.766Z,4.03
2022-09-13T14:47:19.999Z,4.07
2022-09-13T14:50:12.764Z,3.60
2022-09-13T14:52:53.145Z,4.33
2022-09-13T14:55:26.537Z,3.97
2022-09-13T14:58:07.202Z,3.80
2022-09-13T15:00:45.514Z,3.80
2022-09-13T15:03:16.106Z,3.70
2022-09-13T15:05:53.428Z,3.50
2022-09-13T15:08:35.494Z,3.87
2022-09-13T15:11:05.834Z,3.80
2022-09-13T15:13:33.723Z,3.67
2022-09-13T15:16:00.863Z,4.10
2022-09-13T15:18:36.586Z,4.10
2022-09-13T15:21:17.837Z,3.67
2022-09-13T15:23:51.022Z,3.87
2022-09-13T15:26:26.000Z,3.73
2022-09-13T15:29:03.288Z,4.57
2022-09-13T15:31:39.248Z,4.60
2022-09-13T15:34:18.136Z,4.40
2022-09-13T15:36:46.306Z,4.20
2022-09-13T15:39:19.309Z,4.10
2022-09-13T15:41:58.278Z,4.03
2022-09-13T15:44:25.620Z,4.30
2022-09-13T15:46:57.356Z,5.00
2022-09-13T15:49:27.451Z,5.07
2022-09-13T15:52:00.571Z,4.73
2022-09-13T15:54:41.035Z,4.47
2022-09-13T15:57:18.293Z,5.23
2022-09-13T15:59:46.019Z,4.90
2022-09-13T16:02:28.762Z,5.57
2022-09-13T16:04:56.336Z,5.60
2022-09-13T16:07:25.000Z,5.70
2022-09-13T16:09:52.563Z,5.60
2022-09-13T16:12:22.142Z,5.73
2022-09-13T16:14:48.949Z,5.83
2022-09-13T16:17:21.262Z,5.80
2022-09-13T16:19:48.236Z,5.93
2022-09-13T16:22:15.263Z,5.97
2022-09-13T16:24:42.226Z,6.60
2022-09-13T16:27:12.251Z,6.33
2022-09-13T16:29:40.090Z,6.37
2022-09-13T16:32:07.379Z,6.17
2022-09-13T16:34:36.557Z,7.07
2022-09-13T16:37:05.238Z,6.60
2022-09-13T16:39:32.028Z,6.30
2022-09-13T16:41:59.021Z,7.27
2022-09-13T16:44:26.134Z,7.00
2022-09-13T16:46:53.137Z,7.17
2022-09-13T16:49:19.984Z,7.70
2022-09-13T16:51:46.781Z,7.67
2022-09-13T16:54:13.965Z,7.70
2022-09-13T16:56:41.439Z,7.60
2022-09-13T16:59:08.589Z,7.40
2022-09-13T17:01:36.407Z,7.43
2022-09-13T17:04:06.796Z,7.80
2022-09-13T17:06:37.712Z,8.10
2022-09-13T17:09:09.655Z,8.07
2022-09-13T17:11:39.723Z,8.80
2022-09-13T17:14:09.714Z,8.10
2022-09-13T17:17:03.862Z,8.17
2022-09-13T17:19:34.967Z,8.13
2022-09-13T17:22:05.484Z,9.33
2022-09-13T17:24:42.094Z,9.73
2022-09-13T17:27:10.197Z,9.50
2022-09-13T17:29:37.895Z,8.27
2022-09-13T17:32:06.312Z,8.20
2022-09-13T17:34:35.141Z,8.70
2022-09-13T17:40:42.932Z,8.40
2022-09-13T17:47:57.311Z,8.20
2022-09-13T18:13:44.668Z,7.93
2022-09-13T18:16:10.559Z,7.90
2022-09-13T18:18:43.986Z,8.33
2022-09-13T18:21:12.174Z,8.30
2022-09-13T18:23:40.068Z,8.33
2022-09-13T18:26:33.251Z,9.60
2022-09-13T18:32:13.831Z,7.30
2022-09-13T18:34:49.614Z,7.10
2022-09-13T18:40:42.280Z,7.50
2022-09-13T18:43:21.763Z,6.50
2022-09-13T18:46:10.695Z,6.93
2022-09-13T18:48:59.987Z,7.07
2022-09-13T18:51:35.318Z,6.97
2022-09-13T18:54:05.096Z,6.73
2022-09-13T18:56:36.156Z,6.73
2022-09-13T18:59:06.246Z,7.20
2022-09-13T19:01:38.634Z,7.00
2022-09-13T19:04:09.677Z,6.57
2022-09-13T19:06:40.176Z,6.63
2022-09-13T19:09:10.481Z,6.93
2022-09-13T19:11:48.414Z,6.83
2022-09-13T19:14:19.359Z,7.10
2022-09-13T19:16:56.339Z,6.90
2022-09-13T19:19:36.784Z,6.63
2022-09-13T19:22:04.991Z,6.90
2022-09-13T19:24:42.659Z,7.27
2022-09-13T19:27:20.949Z,6.57
2022-09-13T19:29:49.501Z,6.90
2022-09-13T19:32:26.933Z,6.97
2022-09-13T19:34:55.374Z,7.80
2022-09-13T19:37:23.561Z,7.30
2022-09-13T19:42:27.198Z,7.03
2022-09-13T19:44:55.344Z,6.60
2022-09-13T19:53:53.333Z,7.03
2022-09-13T19:56:27.571Z,6.90
2022-09-13T19:59:08.238Z,7.00
2022-09-13T20:01:38.246Z,6.93
2022-09-13T20:04:11.254Z,6.80
2022-09-13T20:06:51.529Z,6.70
2022-09-13T20:09:21.372Z,6.83
2022-09-13T20:11:49.557Z,6.67
2022-09-13T20:14:19.428Z,6.60
2022-09-13T20:16:47.425Z,6.47
2022-09-13T20:22:36.687Z,7.33
2022-09-13T20:25:30.350Z,6.80
2022-09-13T20:27:58.950Z,7.53
2022-09-13T20:34:08.088Z,7.37
2022-09-13T20:36:36.719Z,7.87
2022-09-13T20:39:09.041Z,7.60
2022-09-13T20:41:36.454Z,7.30
2022-09-13T20:44:04.392Z,7.43
2022-09-13T20:46:32.466Z,7.13
2022-09-13T20:49:04.328Z,7.43
2022-09-13T20:51:39.105Z,7.67
2022-09-13T21:03:40.541Z,8.10
2022-09-13T21:10:32.473Z,7.67
2022-09-13T21:13:04.113Z,8.27
2022-09-13T21:15:31.616Z,8.90
2022-09-13T21:17:58.495Z,8.93
2022-09-13T21:20:25.312Z,8.43
2022-09-13T21:22:52.822Z,8.60
2022-09-13T21:25:19.645Z,8.90
2022-09-13T21:27:46.768Z,9.03
2022-09-13T21:30:14.711Z,8.77
2022-09-13T21:32:41.515Z,9.13
2022-09-13T21:40:41.709Z,8.87
2022-09-13T21:43:17.276Z,9.73
2022-09-13T21:45:50.224Z,9.63
2022-09-13T21:48:22.037Z,9.83
2022-09-13T22:04:02.928Z,11.87
2022-09-13T22:06:33.675Z,11.97
2022-09-13T22:09:02.768Z,11.87
2022-09-13T22:11:32.084Z,12.40
2022-09-13T22:13:59.998Z,12.83
2022-09-13T22:16:29.217Z,13.33
2022-09-13T22:45:00.270Z,15.00
2022-09-13T22:47:27.944Z,15.27
2022-09-13T22:50:05.153Z,16.33
2022-09-13T22:52:31.980Z,16.50
2022-09-13T22:58:44.437Z,17.13
2022-09-13T23:01:17.715Z,18.30
2022-09-13T23:03:46.785Z,17.73
2022-09-13T23:06:15.922Z,18.17
2022-09-13T23:08:42.878Z,18.47
2022-09-13T23:11:16.037Z,18.53
2022-09-13T23:13:44.275Z,18.93
2022-09-13T23:16:32.363Z,18.73
2022-09-13T23:19:00.214Z,20.27
2022-09-13T23:21:30.998Z,19.07
2022-09-13T23:23:59.827Z,19.67
2022-09-13T23:26:27.645Z,21.63
2022-09-13T23:29:00.044Z,21.83
2022-09-13T23:31:29.756Z,20.63
2022-09-13T23:34:01.634Z,21.33
2022-09-13T23:36:34.393Z,20.90
2022-09-13T23:39:04.587Z,22.00
2022-09-13T23:41:33.170Z,20.73
2022-09-13T23:44:00.847Z,21.57
2022-09-13T23:46:28.096Z,22.80
2022-09-13T23:48:55.505Z,22.43
2022-09-13T23:51:24.282Z,22.53
2022-09-13T23:53:52.961Z,21.43
2022-09-13T23:56:20.139Z,20.87
2022-09-13T23:58:47.889Z,19.17
